Big Bow, Kansas
Current Conditions -  °F | °C
As of 5:55 AM on Friday 19 Dec 2014 (Local Time) from K3K3 Reporting Station
Haze Haze  
Wind Chill: 27°   Ceiling: Unl
Heat Index: 27°   Visibility: 4mi
Dew Point: 27°   Wind: 3mph
Humidity: 100%   Direction: 320°NW
Pressure: 30.11"   Gusts: NA
Location:  37.5626°N, 101.689°W
Report Text: K3K3 191155Z AUTO 32003KT 4SM BR CLR M03/M03 A3011 RMK AO2
Loading
Personal Weather Stations






























Interactive Weather Map New forecast layout! Learn more

10-Day Weather Forecast

Advertisements
Track Severe Weather on mobile